createdAt,value
2023-02-23T00:01:31.358Z,109.30
2023-02-23T00:04:01.534Z,116.45
2023-02-23T00:06:33.179Z,113.03
2023-02-23T00:09:08.927Z,114.93
2023-02-23T00:11:38.722Z,124.33
2023-02-23T00:14:11.079Z,109.80
2023-02-23T00:16:42.899Z,108.32
2023-02-23T00:19:14.165Z,115.77
2023-02-23T00:21:44.004Z,119.17
2023-02-23T00:24:16.577Z,110.90
2023-02-23T00:26:47.884Z,109.35
2023-02-23T00:29:20.708Z,110.83
2023-02-23T00:31:52.237Z,106.70
2023-02-23T00:34:23.589Z,111.32
2023-02-23T00:36:55.617Z,105.80
2023-02-23T00:39:27.139Z,106.57
2023-02-23T00:41:59.220Z,102.43
2023-02-23T00:44:28.715Z,102.53
2023-02-23T00:46:58.562Z,101.33
2023-02-23T00:49:28.455Z,104.43
2023-02-23T00:51:58.223Z,102.37
2023-02-23T00:54:28.198Z,105.70
2023-02-23T00:56:58.107Z,111.20
2023-02-23T00:59:29.656Z,107.13
2023-02-23T01:01:59.464Z,104.53
2023-02-23T01:04:29.868Z,101.53
2023-02-23T01:07:00.034Z,100.85
2023-02-23T01:09:29.890Z,107.30
2023-02-23T01:12:04.806Z,109.67
2023-02-23T01:14:35.642Z,97.70
2023-02-23T01:17:07.469Z,100.70
2023-02-23T01:19:38.695Z,104.73
2023-02-23T01:22:10.691Z,106.83
2023-02-23T01:24:42.983Z,102.23
2023-02-23T01:27:13.649Z,116.67
2023-02-23T01:29:43.208Z,114.85
2023-02-23T01:32:14.067Z,111.10
2023-02-23T01:34:43.941Z,107.33
2023-02-23T01:40:08.989Z,111.80
2023-02-23T01:42:42.040Z,108.33
2023-02-23T01:45:34.072Z,104.63
2023-02-23T01:48:10.559Z,98.40
2023-02-23T01:50:55.216Z,106.73
2023-02-23T01:53:27.486Z,110.57
2023-02-23T01:56:00.653Z,112.30
2023-02-23T01:58:32.555Z,112.60
2023-02-23T02:01:03.095Z,108.77
2023-02-23T02:03:53.762Z,107.90
2023-02-23T02:06:27.287Z,109.32
2023-02-23T02:09:04.580Z,107.03
2023-02-23T02:11:39.234Z,108.23
2023-02-23T02:14:18.077Z,103.93
2023-02-23T02:17:10.139Z,110.00
2023-02-23T02:20:14.694Z,110.17
2023-02-23T02:23:02.641Z,110.57
2023-02-23T02:25:52.980Z,109.27
2023-02-23T02:28:40.466Z,108.37
2023-02-23T02:31:35.831Z,120.47
2023-02-23T02:34:34.103Z,106.45
2023-02-23T02:37:26.090Z,106.10
2023-02-23T02:40:16.407Z,108.87
2023-02-23T02:43:21.976Z,102.07
2023-02-23T02:45:57.621Z,103.50
2023-02-23T02:48:44.647Z,107.30
2023-02-23T02:51:18.914Z,105.80
2023-02-23T02:54:11.101Z,110.97
2023-02-23T02:56:44.024Z,112.53
2023-02-23T02:59:38.592Z,109.05
2023-02-23T03:02:27.759Z,109.43
2023-02-23T03:05:15.375Z,112.27
2023-02-23T03:08:31.313Z,110.40
2023-02-23T03:11:30.682Z,111.87
2023-02-23T03:14:24.079Z,112.60
2023-02-23T03:17:29.744Z,106.05
2023-02-23T03:20:26.289Z,104.87
2023-02-23T03:23:32.698Z,110.93
2023-02-23T03:26:37.834Z,107.20
2023-02-23T03:29:33.979Z,110.97
2023-02-23T03:35:36.965Z,122.20
2023-02-23T03:38:51.460Z,113.90
2023-02-23T03:41:41.432Z,118.47
2023-02-23T03:44:34.337Z,115.58
2023-02-23T03:47:23.794Z,122.23
2023-02-23T03:50:13.357Z,117.93
2023-02-23T03:53:07.272Z,114.55
2023-02-23T03:55:58.297Z,115.10
2023-02-23T03:58:51.595Z,123.07
2023-02-23T04:01:42.680Z,111.97
2023-02-23T04:04:32.126Z,120.20
2023-02-23T04:07:22.340Z,116.82
2023-02-23T04:10:10.148Z,123.57
2023-02-23T04:13:03.705Z,117.33
2023-02-23T04:15:38.466Z,114.37
2023-02-23T04:18:10.970Z,118.60
2023-02-23T04:20:40.946Z,114.60
2023-02-23T04:23:10.904Z,119.53
2023-02-23T04:25:41.012Z,117.25
2023-02-23T04:28:12.558Z,119.83
2023-02-23T04:30:42.534Z,119.50
2023-02-23T04:33:12.468Z,115.23
2023-02-23T04:35:42.047Z,120.77
2023-02-23T04:38:15.779Z,122.33
2023-02-23T04:40:45.609Z,124.87
2023-02-23T04:43:15.853Z,115.87
2023-02-23T04:45:46.283Z,122.00
2023-02-23T04:48:17.216Z,120.47
2023-02-23T04:50:47.094Z,126.47
2023-02-23T04:53:17.015Z,118.10
2023-02-23T04:55:49.659Z,123.23
2023-02-23T04:58:19.535Z,121.43
2023-02-23T05:00:49.538Z,116.00
2023-02-23T05:03:19.684Z,125.35
2023-02-23T05:05:49.916Z,124.18
2023-02-23T05:08:19.962Z,118.47
2023-02-23T05:10:50.233Z,123.58
2023-02-23T05:13:20.626Z,130.05
2023-02-23T05:15:50.486Z,123.67
2023-02-23T05:18:20.630Z,122.55
2023-02-23T05:20:53.556Z,121.23
2023-02-23T05:23:23.709Z,114.50
2023-02-23T05:25:53.790Z,119.47
2023-02-23T05:28:23.332Z,122.17
2023-02-23T05:30:53.337Z,119.17
2023-02-23T05:33:23.634Z,116.82
2023-02-23T05:35:53.677Z,113.90
2023-02-23T05:38:23.754Z,113.12
2023-02-23T05:40:53.704Z,123.57
2023-02-23T05:43:23.866Z,111.80
2023-02-23T05:45:53.741Z,112.60
2023-02-23T05:48:24.134Z,112.70
2023-02-23T05:50:53.962Z,115.33
2023-02-23T05:53:25.626Z,112.05
2023-02-23T05:55:55.741Z,110.42
2023-02-23T05:58:25.978Z,112.77
2023-02-23T06:00:56.151Z,112.27
2023-02-23T06:03:26.662Z,109.50
2023-02-23T06:05:58.976Z,102.82
2023-02-23T06:08:29.215Z,103.32
2023-02-23T06:10:59.026Z,98.93
2023-02-23T06:13:29.322Z,105.00
2023-02-23T06:16:00.390Z,108.20
2023-02-23T06:18:31.211Z,107.58
2023-02-23T06:21:02.271Z,100.67
2023-02-23T06:23:33.422Z,102.05
2023-02-23T06:26:03.195Z,103.70
2023-02-23T06:28:33.286Z,102.15
2023-02-23T06:31:03.737Z,104.55
2023-02-23T06:33:34.058Z,105.63
2023-02-23T06:36:04.061Z,110.10
2023-02-23T06:38:33.938Z,101.70
2023-02-23T06:41:09.266Z,103.05
2023-02-23T06:43:39.544Z,116.05
2023-02-23T06:46:11.013Z,110.03
2023-02-23T06:48:41.265Z,104.73
2023-02-23T06:51:11.442Z,112.93
2023-02-23T06:53:41.266Z,105.93
2023-02-23T06:56:13.915Z,108.45
2023-02-23T06:58:45.584Z,113.23
2023-02-23T07:01:15.817Z,112.87
2023-02-23T07:03:45.943Z,108.27
2023-02-23T07:06:16.881Z,105.87
2023-02-23T07:08:46.966Z,101.85
2023-02-23T07:11:18.894Z,102.73
2023-02-23T07:13:49.149Z,109.17
2023-02-23T07:16:18.970Z,110.43
2023-02-23T07:18:48.728Z,116.80
2023-02-23T07:21:18.887Z,105.17
2023-02-23T07:23:49.755Z,108.63
2023-02-23T07:26:22.053Z,100.33
2023-02-23T07:28:54.125Z,107.73
2023-02-23T07:31:23.578Z,105.17
2023-02-23T07:33:57.178Z,100.13
2023-02-23T07:36:27.005Z,105.27
2023-02-23T07:38:57.358Z,107.27
2023-02-23T07:41:27.362Z,103.30
2023-02-23T07:43:57.200Z,99.90
2023-02-23T07:46:27.673Z,102.53
2023-02-23T07:48:57.540Z,102.00
2023-02-23T07:51:27.708Z,96.87
2023-02-23T07:53:58.678Z,96.97
2023-02-23T07:56:28.522Z,98.72
2023-02-23T07:58:58.333Z,103.57
2023-02-23T08:01:28.414Z,95.20
2023-02-23T08:03:58.305Z,96.77
2023-02-23T08:06:28.200Z,97.20
2023-02-23T08:09:03.103Z,103.33
2023-02-23T08:11:33.277Z,101.70
2023-02-23T08:14:03.096Z,97.30
2023-02-23T08:16:34.086Z,94.67
2023-02-23T08:19:04.070Z,99.77
2023-02-23T08:21:34.289Z,95.40
2023-02-23T08:24:05.824Z,92.68
2023-02-23T08:26:38.224Z,92.73
2023-02-23T08:29:08.292Z,91.83
2023-02-23T08:31:38.354Z,102.70
2023-02-23T08:34:08.731Z,102.97
2023-02-23T08:36:39.132Z,102.03
2023-02-23T08:39:10.009Z,106.03
2023-02-23T08:41:40.733Z,102.33
2023-02-23T08:44:11.582Z,99.58
2023-02-23T08:46:41.432Z,105.07
2023-02-23T08:49:11.578Z,100.50
2023-02-23T08:51:41.470Z,109.17
2023-02-23T08:54:13.260Z,102.78
2023-02-23T08:56:43.781Z,107.73
2023-02-23T08:59:15.247Z,104.65
2023-02-23T09:01:46.731Z,98.27
2023-02-23T09:04:18.189Z,95.67
2023-02-23T09:06:50.123Z,98.17
2023-02-23T09:09:19.985Z,99.50
2023-02-23T09:11:49.934Z,106.20
2023-02-23T09:14:19.692Z,98.80
2023-02-23T09:16:50.414Z,97.33
2023-02-23T09:19:22.824Z,103.30
2023-02-23T09:21:52.753Z,101.47
2023-02-23T09:24:22.898Z,97.10
2023-02-23T09:26:53.790Z,101.73
2023-02-23T09:29:24.107Z,114.75
2023-02-23T09:31:55.625Z,100.80
2023-02-23T09:34:26.233Z,108.27
2023-02-23T09:36:56.093Z,109.40
2023-02-23T09:39:37.231Z,102.80
2023-02-23T09:42:07.735Z,104.37
2023-02-23T09:44:52.335Z,102.43
2023-02-23T09:47:38.676Z,100.97
2023-02-23T09:52:59.684Z,106.92
2023-02-23T09:55:30.824Z,105.13
2023-02-23T09:58:06.191Z,109.07
2023-02-23T10:00:41.209Z,100.33
2023-02-23T10:03:25.703Z,101.57
2023-02-23T10:06:01.304Z,102.43
2023-02-23T10:08:45.576Z,114.93
2023-02-23T10:11:21.122Z,98.70
2023-02-23T10:14:00.612Z,101.07
2023-02-23T10:17:01.385Z,103.42
2023-02-23T10:19:50.238Z,101.30
2023-02-23T10:22:21.631Z,99.75
2023-02-23T10:25:00.018Z,100.97
2023-02-23T10:27:35.447Z,106.23
2023-02-23T10:30:09.607Z,101.90
2023-02-23T10:32:44.843Z,104.63
2023-02-23T10:35:17.667Z,102.00
2023-02-23T10:37:49.175Z,107.90
2023-02-23T10:40:23.461Z,97.15
2023-02-23T10:42:54.166Z,102.33
2023-02-23T10:45:26.564Z,98.95
2023-02-23T10:48:08.579Z,103.43
2023-02-23T10:50:41.947Z,101.17
2023-02-23T10:53:17.868Z,95.80
2023-02-23T10:55:50.368Z,97.27
2023-02-23T10:58:21.281Z,98.06
2023-02-23T11:00:57.156Z,98.75
2023-02-23T11:03:40.556Z,89.27
2023-02-23T11:06:31.106Z,89.67
2023-02-23T11:09:03.324Z,88.25
2023-02-23T11:11:33.140Z,93.63
2023-02-23T11:14:05.989Z,89.80
2023-02-23T11:16:40.138Z,86.23
2023-02-23T11:19:13.061Z,81.43
2023-02-23T11:21:45.650Z,83.90
2023-02-23T11:24:32.649Z,81.15
2023-02-23T11:27:08.181Z,81.57
2023-02-23T11:29:43.561Z,76.33
2023-02-23T11:32:31.011Z,70.75
2023-02-23T11:35:24.146Z,73.50
2023-02-23T11:37:54.153Z,68.73
2023-02-23T11:40:27.227Z,67.45
2023-02-23T11:42:59.788Z,62.23
2023-02-23T11:45:33.681Z,58.00
2023-02-23T11:48:06.562Z,62.23
2023-02-23T11:50:38.443Z,57.43
2023-02-23T11:53:22.616Z,53.83
2023-02-23T11:55:55.845Z,57.13
2023-02-23T11:58:35.841Z,54.83
2023-02-23T12:01:14.352Z,49.80
2023-02-23T12:03:50.481Z,55.38
2023-02-23T12:09:19.612Z,51.10
2023-02-23T12:11:59.156Z,46.80
2023-02-23T12:14:34.357Z,43.30
2023-02-23T12:17:07.167Z,46.97
2023-02-23T12:19:42.807Z,40.13
2023-02-23T12:22:27.083Z,40.98
2023-02-23T12:25:23.851Z,45.57
2023-02-23T12:28:18.082Z,47.47
2023-02-23T12:30:54.743Z,48.73
2023-02-23T12:33:38.982Z,52.33
2023-02-23T12:36:18.356Z,51.10
2023-02-23T12:38:56.559Z,47.90
2023-02-23T12:41:38.254Z,48.40
2023-02-23T12:44:23.998Z,46.92
2023-02-23T12:46:55.829Z,46.33
2023-02-23T12:49:40.496Z,47.27
2023-02-23T12:52:20.374Z,40.88
2023-02-23T12:54:50.600Z,43.23
2023-02-23T12:57:31.978Z,42.33
2023-02-23T13:02:54.944Z,41.08
2023-02-23T13:05:38.197Z,34.92
2023-02-23T13:08:18.644Z,37.08
2023-02-23T13:11:10.269Z,37.85
2023-02-23T13:13:45.626Z,35.70
2023-02-23T13:16:33.028Z,38.48
2023-02-23T13:19:08.684Z,36.43
2023-02-23T13:21:59.306Z,35.90
2023-02-23T13:24:34.687Z,33.83
2023-02-23T13:27:31.184Z,31.60
2023-02-23T13:30:04.022Z,33.90
2023-02-23T13:32:36.406Z,21.33
2023-02-23T13:35:18.996Z,19.03
2023-02-23T13:37:57.876Z,13.63
2023-02-23T13:40:41.014Z,17.10
2023-02-23T13:43:31.800Z,13.37
2023-02-23T13:46:07.034Z,14.33
2023-02-23T13:48:55.577Z,16.97
2023-02-23T13:54:26.281Z,22.85
2023-02-23T13:57:01.516Z,28.73
2023-02-23T13:59:34.532Z,27.17
2023-02-23T14:02:26.865Z,27.05
2023-02-23T14:05:06.651Z,24.70
2023-02-23T14:07:42.710Z,24.70
2023-02-23T14:13:17.489Z,26.17
2023-02-23T14:15:49.873Z,22.50
2023-02-23T14:18:24.475Z,26.67
2023-02-23T14:21:00.261Z,24.10
2023-02-23T14:23:32.366Z,22.67
2023-02-23T14:26:31.828Z,22.40
2023-02-23T14:29:19.993Z,23.03
2023-02-23T14:32:03.696Z,23.55
2023-02-23T14:34:52.847Z,27.63
2023-02-23T14:37:32.263Z,21.97
2023-02-23T14:40:17.324Z,24.53
2023-02-23T14:42:54.292Z,23.73
2023-02-23T14:45:29.624Z,25.77
2023-02-23T14:48:02.561Z,18.13
2023-02-23T14:50:35.245Z,18.05
2023-02-23T14:53:10.025Z,18.73
2023-02-23T14:55:43.431Z,19.23
2023-02-23T14:58:35.681Z,19.87
2023-02-23T15:01:05.595Z,17.90
2023-02-23T15:03:35.545Z,17.53
2023-02-23T15:06:07.113Z,18.20
2023-02-23T15:08:39.908Z,15.00
2023-02-23T15:11:15.292Z,14.63
2023-02-23T15:13:50.660Z,13.90
2023-02-23T15:16:32.029Z,17.27
2023-02-23T15:19:04.496Z,15.20
2023-02-23T15:21:38.618Z,13.70
2023-02-23T15:24:12.537Z,14.43
2023-02-23T15:26:43.784Z,15.27
2023-02-23T15:29:15.681Z,18.10
2023-02-23T15:31:52.529Z,16.30
2023-02-23T15:34:27.340Z,17.63
2023-02-23T15:37:03.331Z,22.50
2023-02-23T15:39:39.995Z,17.00
2023-02-23T15:42:14.518Z,18.88
2023-02-23T15:44:45.362Z,20.30
2023-02-23T15:47:20.777Z,18.90
2023-02-23T15:49:50.949Z,20.37
2023-02-23T15:52:23.481Z,21.00
2023-02-23T15:55:02.132Z,20.90
2023-02-23T15:57:37.959Z,21.90
2023-02-23T16:00:19.075Z,22.93
2023-02-23T16:02:49.912Z,23.63
2023-02-23T16:05:27.064Z,25.75
2023-02-23T16:08:23.359Z,23.27
2023-02-23T16:10:57.638Z,20.47
2023-02-23T16:13:27.923Z,25.45
2023-02-23T16:15:58.331Z,24.37
2023-02-23T16:18:36.949Z,23.80
2023-02-23T16:21:08.413Z,21.33
2023-02-23T16:23:44.558Z,21.83
2023-02-23T16:28:47.137Z,24.30
2023-02-23T16:31:28.067Z,24.77
2023-02-23T16:34:00.671Z,28.70
2023-02-23T16:36:39.820Z,23.97
2023-02-23T16:39:15.401Z,26.97
2023-02-23T16:41:47.471Z,30.20
2023-02-23T16:44:28.370Z,25.50
2023-02-23T16:47:08.209Z,25.02
2023-02-23T16:49:38.204Z,22.27
2023-02-23T16:52:18.825Z,29.65
2023-02-23T16:54:50.418Z,24.30
2023-02-23T16:57:23.283Z,23.53
2023-02-23T16:59:57.602Z,26.57
2023-02-23T17:02:27.354Z,27.80
2023-02-23T17:04:59.009Z,30.68
2023-02-23T17:07:29.133Z,29.45
2023-02-23T17:09:59.632Z,32.00
2023-02-23T17:12:29.874Z,37.15
2023-02-23T17:14:59.783Z,36.73
2023-02-23T17:17:31.342Z,38.27
2023-02-23T17:20:01.095Z,35.07
2023-02-23T17:22:30.899Z,34.47
2023-02-23T17:25:02.349Z,35.67
2023-02-23T17:27:32.108Z,33.40
2023-02-23T17:30:01.865Z,37.50
2023-02-23T17:32:31.923Z,30.13
2023-02-23T17:35:02.036Z,28.53
2023-02-23T17:37:31.976Z,23.83
2023-02-23T17:40:01.850Z,16.63
2023-02-23T17:42:33.951Z,16.00
2023-02-23T17:45:05.876Z,13.63
2023-02-23T17:47:39.113Z,14.17
2023-02-23T17:50:12.010Z,15.40
2023-02-23T17:52:41.825Z,14.53
2023-02-23T17:55:11.580Z,17.06
2023-02-23T17:57:41.891Z,26.02
2023-02-23T18:00:13.793Z,23.35
2023-02-23T18:02:45.999Z,19.30
2023-02-23T18:05:16.363Z,27.50
2023-02-23T18:07:48.457Z,27.58
2023-02-23T18:10:18.648Z,23.98
2023-02-23T18:12:49.986Z,24.70
2023-02-23T18:15:20.607Z,28.12
2023-02-23T18:17:52.322Z,32.73
2023-02-23T18:20:22.276Z,22.25
2023-02-23T18:22:53.407Z,22.03
2023-02-23T18:25:28.965Z,29.42
2023-02-23T18:28:00.124Z,29.63
2023-02-23T18:30:29.930Z,25.27
2023-02-23T18:33:00.753Z,25.57
2023-02-23T18:35:37.360Z,30.07
2023-02-23T18:38:11.570Z,22.60
2023-02-23T18:40:41.844Z,27.58
2023-02-23T18:43:13.287Z,15.20
2023-02-23T18:45:43.245Z,31.13
2023-02-23T18:48:14.266Z,21.10
2023-02-23T18:50:44.044Z,16.43
2023-02-23T18:53:14.561Z,22.43
2023-02-23T18:55:44.671Z,20.57
2023-02-23T18:58:14.178Z,19.85
2023-02-23T19:00:44.423Z,20.67
2023-02-23T19:03:14.337Z,21.80
2023-02-23T19:05:48.731Z,24.90
2023-02-23T19:08:18.172Z,19.07
2023-02-23T19:10:48.465Z,24.03
2023-02-23T19:13:19.847Z,20.40
2023-02-23T19:15:50.045Z,24.00
2023-02-23T19:18:20.608Z,27.37
2023-02-23T19:20:51.990Z,25.17
2023-02-23T19:23:22.192Z,22.90
2023-02-23T19:25:52.512Z,24.27
2023-02-23T19:28:22.485Z,19.47
2023-02-23T19:30:55.311Z,23.73
2023-02-23T19:33:25.190Z,24.27
2023-02-23T19:35:55.066Z,27.53
2023-02-23T19:38:26.767Z,26.70
2023-02-23T19:40:57.442Z,19.70
2023-02-23T19:43:27.363Z,28.80
2023-02-23T19:45:57.151Z,21.60
2023-02-23T19:48:27.383Z,20.00
2023-02-23T19:50:57.111Z,28.23
2023-02-23T19:53:28.103Z,21.67
2023-02-23T19:56:06.118Z,26.70
2023-02-23T19:58:36.163Z,24.57
2023-02-23T20:01:08.716Z,29.15
2023-02-23T20:03:42.261Z,25.37
2023-02-23T20:06:14.166Z,28.12
2023-02-23T20:08:45.215Z,25.57
2023-02-23T20:11:15.653Z,20.97
2023-02-23T20:13:46.677Z,30.67
2023-02-23T20:16:18.301Z,31.82
2023-02-23T20:18:48.360Z,22.83
2023-02-23T20:21:22.359Z,21.77
2023-02-23T20:23:54.242Z,26.03
2023-02-23T20:26:27.205Z,28.40
2023-02-23T20:28:58.783Z,21.47
2023-02-23T20:31:31.413Z,23.00
2023-02-23T20:34:04.563Z,30.70
2023-02-23T20:36:34.672Z,18.70
2023-02-23T20:39:04.914Z,24.10
2023-02-23T20:41:34.801Z,24.03
2023-02-23T20:44:06.322Z,20.35
2023-02-23T20:46:36.375Z,28.03
2023-02-23T20:49:08.017Z,30.27
2023-02-23T20:51:44.601Z,20.00
2023-02-23T20:54:15.131Z,22.42
2023-02-23T20:56:45.714Z,21.60
2023-02-23T20:59:15.583Z,20.83
2023-02-23T21:01:45.508Z,31.67
2023-02-23T21:04:15.205Z,21.30
2023-02-23T21:06:45.015Z,22.73
2023-02-23T21:09:17.874Z,20.00
2023-02-23T21:11:48.875Z,33.27
2023-02-23T21:14:18.882Z,27.07
2023-02-23T21:16:48.707Z,20.13
2023-02-23T21:19:20.514Z,23.20
2023-02-23T21:21:54.363Z,27.23
2023-02-23T21:24:25.312Z,22.77
2023-02-23T21:26:55.339Z,17.10
2023-02-23T21:29:25.071Z,20.60
2023-02-23T21:31:55.658Z,25.05
2023-02-23T21:34:25.543Z,20.48
2023-02-23T21:36:57.223Z,24.23
2023-02-23T21:39:28.095Z,20.93
2023-02-23T21:41:58.774Z,19.27
2023-02-23T21:44:28.373Z,25.27
2023-02-23T21:46:58.267Z,27.33
2023-02-23T21:49:28.019Z,23.93
2023-02-23T21:51:57.979Z,21.40
2023-02-23T21:54:27.749Z,29.52
2023-02-23T21:56:57.267Z,28.15
2023-02-23T21:59:27.067Z,27.27
2023-02-23T22:01:56.728Z,31.15
2023-02-23T22:04:26.406Z,20.37
2023-02-23T22:06:56.247Z,24.80
2023-02-23T22:09:26.101Z,20.80
2023-02-23T22:11:56.096Z,18.50
2023-02-23T22:14:25.810Z,22.00
2023-02-23T22:16:55.716Z,19.70
2023-02-23T22:19:25.698Z,18.03
2023-02-23T22:21:55.436Z,23.57
2023-02-23T22:24:25.328Z,37.63
2023-02-23T22:26:55.323Z,29.80
2023-02-23T22:29:26.637Z,26.10
2023-02-23T22:31:57.200Z,30.93
2023-02-23T22:34:26.864Z,36.55
2023-02-23T22:36:56.308Z,26.45
2023-02-23T22:39:26.206Z,30.20
2023-02-23T22:41:56.333Z,22.90
2023-02-23T22:44:25.824Z,24.30
2023-02-23T22:46:55.729Z,27.30
2023-02-23T22:49:26.864Z,18.85
2023-02-23T22:51:56.676Z,20.23
2023-02-23T22:54:26.559Z,26.57
2023-02-23T22:56:56.414Z,23.27
2023-02-23T22:59:27.859Z,27.57
2023-02-23T23:01:57.509Z,25.00
2023-02-23T23:04:27.426Z,28.67
2023-02-23T23:06:58.208Z,26.03
2023-02-23T23:09:28.079Z,17.93
2023-02-23T23:11:58.161Z,28.57
2023-02-23T23:14:27.980Z,23.60
2023-02-23T23:16:58.106Z,20.97
2023-02-23T23:19:29.199Z,21.03
2023-02-23T23:22:00.516Z,23.75
2023-02-23T23:24:32.793Z,21.70
2023-02-23T23:27:04.190Z,19.13
2023-02-23T23:29:34.053Z,30.97
2023-02-23T23:32:05.757Z,24.20
2023-02-23T23:34:35.704Z,21.83
2023-02-23T23:37:05.531Z,33.37
2023-02-23T23:39:36.932Z,25.67
2023-02-23T23:42:07.821Z,21.00
2023-02-23T23:44:37.654Z,34.07
2023-02-23T23:47:07.239Z,31.50
2023-02-23T23:49:40.961Z,29.37
2023-02-23T23:52:13.225Z,24.60
2023-02-23T23:54:43.028Z,24.80
2023-02-23T23:57:15.766Z,24.07
2023-02-23T23:59:46.304Z,20.77
